sensor_id;sensor_type;location;lat;lon;timestamp;P1;durP1;ratioP1;P2;durP2;ratioP2
56269;SDS011;42176;43.240;27.880;2023-01-01T00:00:45;13.00;;;7.75;;
56269;SDS011;42176;43.240;27.880;2023-01-01T00:03:10;20.77;;;10.30;;
56269;SDS011;42176;43.240;27.880;2023-01-01T00:05:39;17.45;;;9.40;;
56269;SDS011;42176;43.240;27.880;2023-01-01T00:08:05;15.20;;;8.98;;
56269;SDS011;42176;43.240;27.880;2023-01-01T00:10:31;17.67;;;7.80;;
56269;SDS011;42176;43.240;27.880;2023-01-01T00:12:57;11.15;;;6.70;;
56269;SDS011;42176;43.240;27.880;2023-01-01T00:15:24;22.02;;;10.75;;
56269;SDS011;42176;43.240;27.880;2023-01-01T00:17:50;20.02;;;8.15;;
56269;SDS011;42176;43.240;27.880;2023-01-01T00:20:16;24.35;;;8.55;;
56269;SDS011;42176;43.240;27.880;2023-01-01T00:22:42;22.25;;;9.95;;
56269;SDS011;42176;43.240;27.880;2023-01-01T00:25:07;16.58;;;8.80;;
56269;SDS011;42176;43.240;27.880;2023-01-01T00:27:35;24.92;;;11.10;;
56269;SDS011;42176;43.240;27.880;2023-01-01T00:30:01;19.70;;;8.65;;
56269;SDS011;42176;43.240;27.880;2023-01-01T00:32:26;16.75;;;8.38;;
56269;SDS011;42176;43.240;27.880;2023-01-01T00:34:52;19.73;;;8.68;;
56269;SDS011;42176;43.240;27.880;2023-01-01T00:37:17;19.27;;;8.38;;
56269;SDS011;42176;43.240;27.880;2023-01-01T00:39:43;16.05;;;8.32;;
56269;SDS011;42176;43.240;27.880;2023-01-01T00:42:09;17.52;;;8.15;;
56269;SDS011;42176;43.240;27.880;2023-01-01T00:44:34;12.45;;;7.25;;
56269;SDS011;42176;43.240;27.880;2023-01-01T00:47:00;20.08;;;9.48;;
56269;SDS011;42176;43.240;27.880;2023-01-01T00:49:25;17.58;;;7.60;;
56269;SDS011;42176;43.240;27.880;2023-01-01T00:51:51;14.80;;;8.18;;
56269;SDS011;42176;43.240;27.880;2023-01-01T00:54:17;14.43;;;7.63;;
56269;SDS011;42176;43.240;27.880;2023-01-01T00:56:43;20.25;;;9.43;;
56269;SDS011;42176;43.240;27.880;2023-01-01T00:59:08;10.35;;;6.05;;
56269;SDS011;42176;43.240;27.880;2023-01-01T01:01:33;10.88;;;5.40;;
56269;SDS011;42176;43.240;27.880;2023-01-01T01:03:59;14.48;;;8.75;;
56269;SDS011;42176;43.240;27.880;2023-01-01T01:06:27;15.43;;;7.38;;
56269;SDS011;42176;43.240;27.880;2023-01-01T01:08:53;9.85;;;6.07;;
56269;SDS011;42176;43.240;27.880;2023-01-01T01:11:19;15.70;;;6.57;;
56269;SDS011;42176;43.240;27.880;2023-01-01T01:13:47;16.60;;;8.30;;
56269;SDS011;42176;43.240;27.880;2023-01-01T01:16:15;17.27;;;7.47;;
56269;SDS011;42176;43.240;27.880;2023-01-01T01:18:51;15.93;;;6.70;;
56269;SDS011;42176;43.240;27.880;2023-01-01T01:21:19;7.28;;;5.05;;
56269;SDS011;42176;43.240;27.880;2023-01-01T01:23:45;20.05;;;9.35;;
56269;SDS011;42176;43.240;27.880;2023-01-01T01:26:22;26.60;;;10.27;;
56269;SDS011;42176;43.240;27.880;2023-01-01T01:28:50;21.38;;;8.23;;
56269;SDS011;42176;43.240;27.880;2023-01-01T01:31:17;15.35;;;7.60;;
56269;SDS011;42176;43.240;27.880;2023-01-01T01:33:43;15.82;;;8.57;;
56269;SDS011;42176;43.240;27.880;2023-01-01T01:36:09;12.30;;;6.45;;
56269;SDS011;42176;43.240;27.880;2023-01-01T01:38:35;14.57;;;7.28;;
56269;SDS011;42176;43.240;27.880;2023-01-01T01:41:01;11.00;;;6.13;;
56269;SDS011;42176;43.240;27.880;2023-01-01T01:45:56;11.48;;;7.05;;
56269;SDS011;42176;43.240;27.880;2023-01-01T01:48:25;6.78;;;4.00;;
56269;SDS011;42176;43.240;27.880;2023-01-01T01:50:51;13.70;;;6.32;;
56269;SDS011;42176;43.240;27.880;2023-01-01T01:53:24;6.90;;;4.38;;
56269;SDS011;42176;43.240;27.880;2023-01-01T01:55:54;16.63;;;8.80;;
56269;SDS011;42176;43.240;27.880;2023-01-01T01:58:22;12.93;;;5.82;;
56269;SDS011;42176;43.240;27.880;2023-01-01T02:00:50;11.45;;;5.65;;
56269;SDS011;42176;43.240;27.880;2023-01-01T02:03:23;11.85;;;6.30;;
56269;SDS011;42176;43.240;27.880;2023-01-01T02:05:54;15.35;;;7.38;;
56269;SDS011;42176;43.240;27.880;2023-01-01T02:08:21;11.45;;;6.18;;
56269;SDS011;42176;43.240;27.880;2023-01-01T02:10:47;15.65;;;6.95;;
56269;SDS011;42176;43.240;27.880;2023-01-01T02:13:13;12.25;;;5.90;;
56269;SDS011;42176;43.240;27.880;2023-01-01T02:15:41;9.65;;;4.20;;
56269;SDS011;42176;43.240;27.880;2023-01-01T02:18:17;10.52;;;5.20;;
56269;SDS011;42176;43.240;27.880;2023-01-01T02:20:49;11.25;;;5.40;;
56269;SDS011;42176;43.240;27.880;2023-01-01T02:26:03;10.18;;;6.38;;
56269;SDS011;42176;43.240;27.880;2023-01-01T02:28:50;9.57;;;5.68;;
56269;SDS011;42176;43.240;27.880;2023-01-01T02:31:18;12.33;;;5.87;;
56269;SDS011;42176;43.240;27.880;2023-01-01T02:33:52;14.80;;;6.47;;
56269;SDS011;42176;43.240;27.880;2023-01-01T02:36:23;11.25;;;5.75;;
56269;SDS011;42176;43.240;27.880;2023-01-01T02:38:51;8.93;;;5.13;;
56269;SDS011;42176;43.240;27.880;2023-01-01T02:41:20;12.25;;;5.25;;
56269;SDS011;42176;43.240;27.880;2023-01-01T02:43:50;10.00;;;5.10;;
56269;SDS011;42176;43.240;27.880;2023-01-01T02:46:16;6.63;;;4.35;;
56269;SDS011;42176;43.240;27.880;2023-01-01T02:48:43;11.20;;;5.93;;
56269;SDS011;42176;43.240;27.880;2023-01-01T02:51:15;12.93;;;6.22;;
56269;SDS011;42176;43.240;27.880;2023-01-01T02:53:51;10.23;;;5.20;;
56269;SDS011;42176;43.240;27.880;2023-01-01T02:56:36;13.48;;;5.88;;
56269;SDS011;42176;43.240;27.880;2023-01-01T03:02:02;10.45;;;5.20;;
56269;SDS011;42176;43.240;27.880;2023-01-01T03:07:40;12.30;;;5.15;;
56269;SDS011;42176;43.240;27.880;2023-01-01T03:10:32;10.13;;;4.82;;
56269;SDS011;42176;43.240;27.880;2023-01-01T03:13:08;10.68;;;5.07;;
56269;SDS011;42176;43.240;27.880;2023-01-01T03:18:38;10.57;;;5.57;;
56269;SDS011;42176;43.240;27.880;2023-01-01T03:21:06;9.48;;;4.65;;
56269;SDS011;42176;43.240;27.880;2023-01-01T03:23:35;11.15;;;4.25;;
56269;SDS011;42176;43.240;27.880;2023-01-01T03:26:06;8.30;;;4.75;;
56269;SDS011;42176;43.240;27.880;2023-01-01T03:28:43;6.75;;;4.43;;
56269;SDS011;42176;43.240;27.880;2023-01-01T03:31:13;12.20;;;5.45;;
56269;SDS011;42176;43.240;27.880;2023-01-01T03:33:44;12.73;;;7.32;;
56269;SDS011;42176;43.240;27.880;2023-01-01T03:39:06;12.73;;;7.90;;
56269;SDS011;42176;43.240;27.880;2023-01-01T03:41:43;15.80;;;7.18;;
56269;SDS011;42176;43.240;27.880;2023-01-01T03:44:19;9.60;;;5.13;;
56269;SDS011;42176;43.240;27.880;2023-01-01T03:46:51;8.23;;;4.88;;
56269;SDS011;42176;43.240;27.880;2023-01-01T03:49:17;7.93;;;4.55;;
56269;SDS011;42176;43.240;27.880;2023-01-01T03:51:58;15.52;;;7.38;;
56269;SDS011;42176;43.240;27.880;2023-01-01T03:54:52;24.40;;;10.27;;
56269;SDS011;42176;43.240;27.880;2023-01-01T04:05:20;11.27;;;5.32;;
56269;SDS011;42176;43.240;27.880;2023-01-01T04:07:47;7.45;;;4.38;;
56269;SDS011;42176;43.240;27.880;2023-01-01T04:10:13;10.05;;;5.35;;
56269;SDS011;42176;43.240;27.880;2023-01-01T04:12:52;6.68;;;3.67;;
56269;SDS011;42176;43.240;27.880;2023-01-01T04:15:21;11.73;;;5.05;;
56269;SDS011;42176;43.240;27.880;2023-01-01T04:17:49;10.07;;;5.45;;
56269;SDS011;42176;43.240;27.880;2023-01-01T04:20:15;4.53;;;3.70;;
56269;SDS011;42176;43.240;27.880;2023-01-01T04:22:42;12.07;;;5.40;;
56269;SDS011;42176;43.240;27.880;2023-01-01T04:25:07;8.60;;;4.80;;
56269;SDS011;42176;43.240;27.880;2023-01-01T04:27:34;7.63;;;5.00;;
56269;SDS011;42176;43.240;27.880;2023-01-01T04:29:59;9.27;;;4.85;;
56269;SDS011;42176;43.240;27.880;2023-01-01T04:32:25;6.68;;;4.20;;
56269;SDS011;42176;43.240;27.880;2023-01-01T04:34:51;5.93;;;4.20;;
56269;SDS011;42176;43.240;27.880;2023-01-01T04:37:16;7.95;;;3.95;;
56269;SDS011;42176;43.240;27.880;2023-01-01T04:39:41;9.95;;;4.53;;
56269;SDS011;42176;43.240;27.880;2023-01-01T04:42:07;11.65;;;4.70;;
56269;SDS011;42176;43.240;27.880;2023-01-01T04:44:33;10.70;;;5.53;;
56269;SDS011;42176;43.240;27.880;2023-01-01T04:46:58;8.00;;;5.30;;
56269;SDS011;42176;43.240;27.880;2023-01-01T04:49:24;5.60;;;3.58;;
56269;SDS011;42176;43.240;27.880;2023-01-01T04:51:49;9.18;;;4.20;;
56269;SDS011;42176;43.240;27.880;2023-01-01T04:54:15;6.07;;;3.85;;
56269;SDS011;42176;43.240;27.880;2023-01-01T04:56:40;5.35;;;4.00;;
56269;SDS011;42176;43.240;27.880;2023-01-01T04:59:06;7.10;;;4.45;;
56269;SDS011;42176;43.240;27.880;2023-01-01T05:01:31;4.22;;;2.38;;
56269;SDS011;42176;43.240;27.880;2023-01-01T05:03:57;8.65;;;4.25;;
56269;SDS011;42176;43.240;27.880;2023-01-01T05:06:24;10.32;;;5.53;;
56269;SDS011;42176;43.240;27.880;2023-01-01T05:08:51;10.82;;;6.22;;
56269;SDS011;42176;43.240;27.880;2023-01-01T05:11:19;7.00;;;4.18;;
56269;SDS011;42176;43.240;27.880;2023-01-01T05:13:50;10.82;;;6.43;;
56269;SDS011;42176;43.240;27.880;2023-01-01T05:16:18;8.10;;;4.45;;
56269;SDS011;42176;43.240;27.880;2023-01-01T05:18:46;6.40;;;3.85;;
56269;SDS011;42176;43.240;27.880;2023-01-01T05:21:14;7.22;;;4.10;;
56269;SDS011;42176;43.240;27.880;2023-01-01T05:23:56;7.18;;;4.25;;
56269;SDS011;42176;43.240;27.880;2023-01-01T05:26:24;7.00;;;3.70;;
56269;SDS011;42176;43.240;27.880;2023-01-01T05:28:52;8.43;;;5.03;;
56269;SDS011;42176;43.240;27.880;2023-01-01T05:31:22;9.77;;;5.05;;
56269;SDS011;42176;43.240;27.880;2023-01-01T05:33:49;12.88;;;8.00;;
56269;SDS011;42176;43.240;27.880;2023-01-01T05:36:37;9.63;;;5.32;;
56269;SDS011;42176;43.240;27.880;2023-01-01T05:39:03;12.48;;;6.72;;
56269;SDS011;42176;43.240;27.880;2023-01-01T05:41:30;7.85;;;4.95;;
56269;SDS011;42176;43.240;27.880;2023-01-01T05:43:55;11.57;;;5.07;;
56269;SDS011;42176;43.240;27.880;2023-01-01T05:46:22;8.80;;;5.47;;
56269;SDS011;42176;43.240;27.880;2023-01-01T05:48:49;9.13;;;4.70;;
56269;SDS011;42176;43.240;27.880;2023-01-01T05:51:18;13.10;;;6.68;;
56269;SDS011;42176;43.240;27.880;2023-01-01T05:53:48;10.25;;;6.07;;
56269;SDS011;42176;43.240;27.880;2023-01-01T05:56:14;10.45;;;5.53;;
56269;SDS011;42176;43.240;27.880;2023-01-01T05:58:40;9.70;;;5.00;;
56269;SDS011;42176;43.240;27.880;2023-01-01T06:01:22;7.53;;;4.72;;
56269;SDS011;42176;43.240;27.880;2023-01-01T06:03:49;10.30;;;4.13;;
56269;SDS011;42176;43.240;27.880;2023-01-01T06:06:16;8.55;;;4.32;;
56269;SDS011;42176;43.240;27.880;2023-01-01T06:08:54;11.13;;;4.80;;
56269;SDS011;42176;43.240;27.880;2023-01-01T06:11:21;9.05;;;4.68;;
56269;SDS011;42176;43.240;27.880;2023-01-01T06:13:47;10.65;;;5.50;;
56269;SDS011;42176;43.240;27.880;2023-01-01T06:16:16;11.73;;;6.35;;
56269;SDS011;42176;43.240;27.880;2023-01-01T06:18:41;10.50;;;6.95;;
56269;SDS011;42176;43.240;27.880;2023-01-01T06:21:09;18.90;;;10.07;;
56269;SDS011;42176;43.240;27.880;2023-01-01T06:23:39;19.37;;;9.60;;
56269;SDS011;42176;43.240;27.880;2023-01-01T06:28:33;12.02;;;5.80;;
56269;SDS011;42176;43.240;27.880;2023-01-01T06:30:59;8.50;;;4.85;;
56269;SDS011;42176;43.240;27.880;2023-01-01T06:33:25;5.22;;;4.13;;
56269;SDS011;42176;43.240;27.880;2023-01-01T06:35:51;7.13;;;3.83;;
56269;SDS011;42176;43.240;27.880;2023-01-01T06:38:17;6.35;;;4.00;;
56269;SDS011;42176;43.240;27.880;2023-01-01T06:40:42;5.22;;;3.63;;
56269;SDS011;42176;43.240;27.880;2023-01-01T06:43:07;8.85;;;4.72;;
56269;SDS011;42176;43.240;27.880;2023-01-01T06:45:33;11.75;;;6.90;;
56269;SDS011;42176;43.240;27.880;2023-01-01T06:47:58;8.43;;;5.65;;
56269;SDS011;42176;43.240;27.880;2023-01-01T06:50:24;7.15;;;4.70;;
56269;SDS011;42176;43.240;27.880;2023-01-01T06:52:49;7.10;;;4.05;;
56269;SDS011;42176;43.240;27.880;2023-01-01T06:55:15;5.10;;;4.38;;
56269;SDS011;42176;43.240;27.880;2023-01-01T06:57:40;5.55;;;3.88;;
56269;SDS011;42176;43.240;27.880;2023-01-01T07:00:06;7.43;;;5.13;;
56269;SDS011;42176;43.240;27.880;2023-01-01T07:02:32;8.88;;;5.13;;
56269;SDS011;42176;43.240;27.880;2023-01-01T07:04:57;8.02;;;6.03;;
56269;SDS011;42176;43.240;27.880;2023-01-01T07:07:22;10.63;;;6.63;;
56269;SDS011;42176;43.240;27.880;2023-01-01T07:09:48;7.78;;;5.85;;
56269;SDS011;42176;43.240;27.880;2023-01-01T07:12:13;10.07;;;6.63;;
56269;SDS011;42176;43.240;27.880;2023-01-01T07:14:39;7.35;;;6.20;;
56269;SDS011;42176;43.240;27.880;2023-01-01T07:17:04;8.35;;;6.25;;
56269;SDS011;42176;43.240;27.880;2023-01-01T07:19:30;6.80;;;5.72;;
56269;SDS011;42176;43.240;27.880;2023-01-01T07:21:55;14.32;;;6.20;;
56269;SDS011;42176;43.240;27.880;2023-01-01T07:24:20;9.25;;;5.82;;
56269;SDS011;42176;43.240;27.880;2023-01-01T07:26:46;7.53;;;6.03;;
56269;SDS011;42176;43.240;27.880;2023-01-01T07:29:13;9.02;;;7.07;;
56269;SDS011;42176;43.240;27.880;2023-01-01T07:31:39;10.50;;;7.10;;
56269;SDS011;42176;43.240;27.880;2023-01-01T07:34:08;9.10;;;6.53;;
56269;SDS011;42176;43.240;27.880;2023-01-01T07:36:36;8.45;;;5.93;;
56269;SDS011;42176;43.240;27.880;2023-01-01T07:39:02;14.60;;;8.13;;
56269;SDS011;42176;43.240;27.880;2023-01-01T07:41:27;10.57;;;6.47;;
56269;SDS011;42176;43.240;27.880;2023-01-01T07:43:53;8.40;;;4.45;;
56269;SDS011;42176;43.240;27.880;2023-01-01T07:46:18;9.02;;;4.50;;
56269;SDS011;42176;43.240;27.880;2023-01-01T07:48:44;5.72;;;4.28;;
56269;SDS011;42176;43.240;27.880;2023-01-01T07:51:09;6.25;;;4.07;;
56269;SDS011;42176;43.240;27.880;2023-01-01T07:53:35;4.55;;;3.97;;
56269;SDS011;42176;43.240;27.880;2023-01-01T07:56:01;8.13;;;4.18;;
56269;SDS011;42176;43.240;27.880;2023-01-01T07:58:26;7.80;;;3.90;;
56269;SDS011;42176;43.240;27.880;2023-01-01T08:00:51;5.82;;;4.20;;
56269;SDS011;42176;43.240;27.880;2023-01-01T08:03:17;3.95;;;3.60;;
56269;SDS011;42176;43.240;27.880;2023-01-01T08:05:43;7.68;;;5.45;;
56269;SDS011;42176;43.240;27.880;2023-01-01T08:08:08;4.68;;;4.07;;
56269;SDS011;42176;43.240;27.880;2023-01-01T08:10:35;6.38;;;4.35;;
56269;SDS011;42176;43.240;27.880;2023-01-01T08:13:00;5.82;;;4.63;;
56269;SDS011;42176;43.240;27.880;2023-01-01T08:15:27;6.63;;;4.25;;
56269;SDS011;42176;43.240;27.880;2023-01-01T08:17:59;8.20;;;4.25;;
56269;SDS011;42176;43.240;27.880;2023-01-01T08:20:27;5.15;;;3.60;;
56269;SDS011;42176;43.240;27.880;2023-01-01T08:22:53;4.20;;;3.80;;
56269;SDS011;42176;43.240;27.880;2023-01-01T08:25:19;6.82;;;3.67;;
56269;SDS011;42176;43.240;27.880;2023-01-01T08:27:45;5.28;;;3.13;;
56269;SDS011;42176;43.240;27.880;2023-01-01T08:30:12;5.05;;;3.92;;
56269;SDS011;42176;43.240;27.880;2023-01-01T08:32:38;4.50;;;3.97;;
56269;SDS011;42176;43.240;27.880;2023-01-01T08:35:04;6.75;;;3.88;;
56269;SDS011;42176;43.240;27.880;2023-01-01T08:37:30;4.93;;;3.83;;
56269;SDS011;42176;43.240;27.880;2023-01-01T08:39:55;8.25;;;3.38;;
56269;SDS011;42176;43.240;27.880;2023-01-01T08:42:21;6.18;;;3.85;;
56269;SDS011;42176;43.240;27.880;2023-01-01T08:44:46;5.82;;;3.42;;
56269;SDS011;42176;43.240;27.880;2023-01-01T08:47:16;5.65;;;4.45;;
56269;SDS011;42176;43.240;27.880;2023-01-01T08:49:42;4.68;;;3.28;;
56269;SDS011;42176;43.240;27.880;2023-01-01T08:52:07;9.60;;;4.03;;
56269;SDS011;42176;43.240;27.880;2023-01-01T08:54:33;6.97;;;3.90;;
56269;SDS011;42176;43.240;27.880;2023-01-01T08:56:58;5.45;;;3.85;;
56269;SDS011;42176;43.240;27.880;2023-01-01T08:59:24;6.38;;;3.50;;
56269;SDS011;42176;43.240;27.880;2023-01-01T09:01:49;8.93;;;3.47;;
56269;SDS011;42176;43.240;27.880;2023-01-01T09:04:14;5.78;;;3.38;;
56269;SDS011;42176;43.240;27.880;2023-01-01T09:06:41;6.80;;;3.70;;
56269;SDS011;42176;43.240;27.880;2023-01-01T09:09:06;6.60;;;4.47;;
56269;SDS011;42176;43.240;27.880;2023-01-01T09:11:32;8.00;;;4.28;;
56269;SDS011;42176;43.240;27.880;2023-01-01T09:13:57;5.00;;;3.60;;
56269;SDS011;42176;43.240;27.880;2023-01-01T09:16:23;6.53;;;3.67;;
56269;SDS011;42176;43.240;27.880;2023-01-01T09:18:48;6.50;;;3.83;;
56269;SDS011;42176;43.240;27.880;2023-01-01T09:21:14;7.82;;;4.32;;
56269;SDS011;42176;43.240;27.880;2023-01-01T09:23:39;9.10;;;5.00;;
56269;SDS011;42176;43.240;27.880;2023-01-01T09:26:06;5.72;;;4.28;;
56269;SDS011;42176;43.240;27.880;2023-01-01T09:28:33;6.32;;;3.63;;
56269;SDS011;42176;43.240;27.880;2023-01-01T09:31:00;8.18;;;3.60;;
56269;SDS011;42176;43.240;27.880;2023-01-01T09:33:26;5.93;;;3.58;;
56269;SDS011;42176;43.240;27.880;2023-01-01T09:35:52;5.10;;;3.30;;
56269;SDS011;42176;43.240;27.880;2023-01-01T09:38:18;6.35;;;3.67;;
56269;SDS011;42176;43.240;27.880;2023-01-01T09:46:45;4.20;;;3.47;;
56269;SDS011;42176;43.240;27.880;2023-01-01T09:49:12;6.07;;;3.85;;
56269;SDS011;42176;43.240;27.880;2023-01-01T09:51:42;9.15;;;5.50;;
56269;SDS011;42176;43.240;27.880;2023-01-01T09:56:53;7.30;;;4.57;;
56269;SDS011;42176;43.240;27.880;2023-01-01T09:59:21;10.73;;;4.75;;
56269;SDS011;42176;43.240;27.880;2023-01-01T10:01:56;14.85;;;5.20;;
56269;SDS011;42176;43.240;27.880;2023-01-01T10:12:10;12.15;;;5.45;;
56269;SDS011;42176;43.240;27.880;2023-01-01T10:14:51;10.93;;;5.38;;
56269;SDS011;42176;43.240;27.880;2023-01-01T10:17:40;7.97;;;5.07;;
56269;SDS011;42176;43.240;27.880;2023-01-01T10:22:51;7.07;;;4.47;;
56269;SDS011;42176;43.240;27.880;2023-01-01T10:25:23;6.83;;;4.07;;
56269;SDS011;42176;43.240;27.880;2023-01-01T10:27:58;14.85;;;4.63;;
56269;SDS011;42176;43.240;27.880;2023-01-01T10:30:27;9.13;;;5.03;;
56269;SDS011;42176;43.240;27.880;2023-01-01T10:32:54;5.15;;;3.60;;
56269;SDS011;42176;43.240;27.880;2023-01-01T10:37:59;10.88;;;5.07;;
56269;SDS011;42176;43.240;27.880;2023-01-01T10:40:26;7.70;;;4.15;;
56269;SDS011;42176;43.240;27.880;2023-01-01T10:42:54;10.65;;;3.97;;
56269;SDS011;42176;43.240;27.880;2023-01-01T10:45:43;8.43;;;4.55;;
56269;SDS011;42176;43.240;27.880;2023-01-01T10:48:25;9.80;;;3.42;;
56269;SDS011;42176;43.240;27.880;2023-01-01T10:50:53;8.35;;;3.58;;
56269;SDS011;42176;43.240;27.880;2023-01-01T10:58:36;6.53;;;3.63;;
56269;SDS011;42176;43.240;27.880;2023-01-01T11:01:05;5.97;;;3.92;;
56269;SDS011;42176;43.240;27.880;2023-01-01T11:03:33;7.47;;;5.20;;
56269;SDS011;42176;43.240;27.880;2023-01-01T11:08:46;7.90;;;3.53;;
56269;SDS011;42176;43.240;27.880;2023-01-01T11:11:21;5.55;;;3.50;;
56269;SDS011;42176;43.240;27.880;2023-01-01T11:13:50;3.47;;;2.83;;
56269;SDS011;42176;43.240;27.880;2023-01-01T11:16:17;7.30;;;3.15;;
56269;SDS011;42176;43.240;27.880;2023-01-01T11:18:43;6.13;;;3.35;;
56269;SDS011;42176;43.240;27.880;2023-01-01T11:21:09;4.88;;;3.40;;
56269;SDS011;42176;43.240;27.880;2023-01-01T11:23:42;5.72;;;3.17;;
56269;SDS011;42176;43.240;27.880;2023-01-01T11:28:36;5.88;;;3.28;;
56269;SDS011;42176;43.240;27.880;2023-01-01T11:33:29;5.20;;;3.17;;
56269;SDS011;42176;43.240;27.880;2023-01-01T11:35:57;4.30;;;3.10;;
56269;SDS011;42176;43.240;27.880;2023-01-01T11:38:23;10.13;;;3.30;;
56269;SDS011;42176;43.240;27.880;2023-01-01T11:40:50;4.88;;;3.08;;
56269;SDS011;42176;43.240;27.880;2023-01-01T11:43:22;3.38;;;2.58;;
56269;SDS011;42176;43.240;27.880;2023-01-01T11:45:50;5.00;;;3.08;;
56269;SDS011;42176;43.240;27.880;2023-01-01T11:48:22;5.43;;;2.67;;
56269;SDS011;42176;43.240;27.880;2023-01-01T11:50:51;3.92;;;2.90;;
56269;SDS011;42176;43.240;27.880;2023-01-01T11:56:28;7.35;;;3.83;;
56269;SDS011;42176;43.240;27.880;2023-01-01T12:04:08;6.57;;;3.25;;
56269;SDS011;42176;43.240;27.880;2023-01-01T12:06:38;9.27;;;3.58;;
56269;SDS011;42176;43.240;27.880;2023-01-01T12:14:27;5.13;;;3.28;;
56269;SDS011;42176;43.240;27.880;2023-01-01T12:17:21;3.38;;;2.10;;
56269;SDS011;42176;43.240;27.880;2023-01-01T12:20:18;3.28;;;2.20;;
56269;SDS011;42176;43.240;27.880;2023-01-01T12:22:50;4.63;;;2.60;;
56269;SDS011;42176;43.240;27.880;2023-01-01T12:25:19;3.10;;;2.45;;
56269;SDS011;42176;43.240;27.880;2023-01-01T12:30:37;4.00;;;2.72;;
56269;SDS011;42176;43.240;27.880;2023-01-01T12:33:26;2.83;;;2.42;;
56269;SDS011;42176;43.240;27.880;2023-01-01T12:36:05;8.43;;;2.78;;
56269;SDS011;42176;43.240;27.880;2023-01-01T12:52:01;4.53;;;2.88;;
56269;SDS011;42176;43.240;27.880;2023-01-01T13:00:11;8.02;;;3.70;;
56269;SDS011;42176;43.240;27.880;2023-01-01T13:02:44;7.10;;;3.00;;
56269;SDS011;42176;43.240;27.880;2023-01-01T13:05:16;4.15;;;3.38;;
56269;SDS011;42176;43.240;27.880;2023-01-01T13:07:45;4.45;;;3.50;;
56269;SDS011;42176;43.240;27.880;2023-01-01T13:12:50;6.18;;;2.90;;
56269;SDS011;42176;43.240;27.880;2023-01-01T13:18:06;4.80;;;3.72;;
56269;SDS011;42176;43.240;27.880;2023-01-01T13:20:44;7.78;;;3.13;;
56269;SDS011;42176;43.240;27.880;2023-01-01T13:45:34;5.75;;;3.40;;
56269;SDS011;42176;43.240;27.880;2023-01-01T14:04:48;9.48;;;4.40;;
56269;SDS011;42176;43.240;27.880;2023-01-01T14:07:16;7.93;;;4.97;;
56269;SDS011;42176;43.240;27.880;2023-01-01T14:09:47;7.45;;;4.38;;
56269;SDS011;42176;43.240;27.880;2023-01-01T14:12:19;13.65;;;5.32;;
56269;SDS011;42176;43.240;27.880;2023-01-01T14:14:46;9.38;;;5.32;;
56269;SDS011;42176;43.240;27.880;2023-01-01T14:17:14;8.13;;;5.25;;
56269;SDS011;42176;43.240;27.880;2023-01-01T14:19:41;9.85;;;5.13;;
56269;SDS011;42176;43.240;27.880;2023-01-01T14:22:08;10.85;;;5.45;;
56269;SDS011;42176;43.240;27.880;2023-01-01T14:24:40;8.27;;;4.53;;
56269;SDS011;42176;43.240;27.880;2023-01-01T14:27:12;15.18;;;5.93;;
56269;SDS011;42176;43.240;27.880;2023-01-01T14:29:43;13.82;;;6.60;;
56269;SDS011;42176;43.240;27.880;2023-01-01T14:32:20;13.75;;;7.40;;
56269;SDS011;42176;43.240;27.880;2023-01-01T14:34:56;16.63;;;8.68;;
56269;SDS011;42176;43.240;27.880;2023-01-01T14:37:24;14.38;;;8.60;;
56269;SDS011;42176;43.240;27.880;2023-01-01T14:42:56;15.90;;;8.03;;
56269;SDS011;42176;43.240;27.880;2023-01-01T14:45:28;20.80;;;9.23;;
56269;SDS011;42176;43.240;27.880;2023-01-01T14:47:56;10.25;;;5.53;;
56269;SDS011;42176;43.240;27.880;2023-01-01T14:50:23;12.77;;;6.20;;
56269;SDS011;42176;43.240;27.880;2023-01-01T14:53:13;7.50;;;4.05;;
56269;SDS011;42176;43.240;27.880;2023-01-01T14:55:43;9.82;;;6.53;;
56269;SDS011;42176;43.240;27.880;2023-01-01T14:58:21;12.38;;;6.40;;
56269;SDS011;42176;43.240;27.880;2023-01-01T15:00:49;24.20;;;8.05;;
56269;SDS011;42176;43.240;27.880;2023-01-01T15:03:18;9.85;;;5.95;;
56269;SDS011;42176;43.240;27.880;2023-01-01T15:05:57;8.48;;;5.72;;
56269;SDS011;42176;43.240;27.880;2023-01-01T15:08:24;11.68;;;5.45;;
56269;SDS011;42176;43.240;27.880;2023-01-01T15:10:51;8.18;;;4.53;;
56269;SDS011;42176;43.240;27.880;2023-01-01T15:13:19;11.07;;;5.00;;
56269;SDS011;42176;43.240;27.880;2023-01-01T15:15:47;9.88;;;5.18;;
56269;SDS011;42176;43.240;27.880;2023-01-01T15:20:58;8.50;;;5.18;;
56269;SDS011;42176;43.240;27.880;2023-01-01T15:23:24;10.23;;;5.07;;
56269;SDS011;42176;43.240;27.880;2023-01-01T15:25:50;10.20;;;5.07;;
56269;SDS011;42176;43.240;27.880;2023-01-01T15:28:19;8.77;;;5.43;;
56269;SDS011;42176;43.240;27.880;2023-01-01T15:30:48;7.75;;;4.90;;
56269;SDS011;42176;43.240;27.880;2023-01-01T15:33:18;13.63;;;7.80;;
56269;SDS011;42176;43.240;27.880;2023-01-01T15:35:50;19.08;;;9.90;;
56269;SDS011;42176;43.240;27.880;2023-01-01T15:40:51;12.63;;;8.07;;
56269;SDS011;42176;43.240;27.880;2023-01-01T15:43:20;8.10;;;4.80;;
56269;SDS011;42176;43.240;27.880;2023-01-01T15:45:59;8.60;;;4.22;;
56269;SDS011;42176;43.240;27.880;2023-01-01T15:48:47;18.48;;;7.63;;
56269;SDS011;42176;43.240;27.880;2023-01-01T15:51:15;10.77;;;6.20;;
56269;SDS011;42176;43.240;27.880;2023-01-01T15:53:59;14.52;;;5.97;;
56269;SDS011;42176;43.240;27.880;2023-01-01T15:56:29;10.43;;;5.60;;
56269;SDS011;42176;43.240;27.880;2023-01-01T16:01:46;13.27;;;7.10;;
56269;SDS011;42176;43.240;27.880;2023-01-01T16:06:43;8.68;;;4.95;;
56269;SDS011;42176;43.240;27.880;2023-01-01T16:09:12;7.75;;;4.55;;
56269;SDS011;42176;43.240;27.880;2023-01-01T16:11:40;8.15;;;5.15;;
56269;SDS011;42176;43.240;27.880;2023-01-01T16:14:06;10.82;;;5.03;;
56269;SDS011;42176;43.240;27.880;2023-01-01T16:16:31;8.18;;;4.05;;
56269;SDS011;42176;43.240;27.880;2023-01-01T16:18:57;6.70;;;3.95;;
56269;SDS011;42176;43.240;27.880;2023-01-01T16:21:24;16.27;;;9.35;;
56269;SDS011;42176;43.240;27.880;2023-01-01T16:23:55;13.02;;;7.35;;
56269;SDS011;42176;43.240;27.880;2023-01-01T16:26:20;8.15;;;5.18;;
56269;SDS011;42176;43.240;27.880;2023-01-01T16:28:46;13.70;;;7.03;;
56269;SDS011;42176;43.240;27.880;2023-01-01T16:31:15;7.78;;;4.40;;
56269;SDS011;42176;43.240;27.880;2023-01-01T16:33:44;8.18;;;4.40;;
56269;SDS011;42176;43.240;27.880;2023-01-01T16:36:15;7.80;;;4.47;;
56269;SDS011;42176;43.240;27.880;2023-01-01T16:38:40;10.45;;;6.32;;
56269;SDS011;42176;43.240;27.880;2023-01-01T16:41:09;12.98;;;5.88;;
56269;SDS011;42176;43.240;27.880;2023-01-01T16:43:40;10.48;;;6.20;;
56269;SDS011;42176;43.240;27.880;2023-01-01T16:46:06;10.10;;;5.40;;
56269;SDS011;42176;43.240;27.880;2023-01-01T16:48:31;10.70;;;5.05;;
56269;SDS011;42176;43.240;27.880;2023-01-01T16:50:57;6.85;;;4.50;;
56269;SDS011;42176;43.240;27.880;2023-01-01T16:53:22;9.13;;;5.47;;
56269;SDS011;42176;43.240;27.880;2023-01-01T16:55:51;8.93;;;5.03;;
56269;SDS011;42176;43.240;27.880;2023-01-01T16:58:17;12.38;;;7.25;;
56269;SDS011;42176;43.240;27.880;2023-01-01T17:00:42;13.57;;;8.32;;
56269;SDS011;42176;43.240;27.880;2023-01-01T17:03:08;12.35;;;8.25;;
56269;SDS011;42176;43.240;27.880;2023-01-01T17:05:36;14.15;;;7.47;;
56269;SDS011;42176;43.240;27.880;2023-01-01T17:08:02;11.00;;;6.18;;
56269;SDS011;42176;43.240;27.880;2023-01-01T17:10:28;11.38;;;6.35;;
56269;SDS011;42176;43.240;27.880;2023-01-01T17:12:54;15.32;;;9.15;;